Boynton Beach, FL

11:52 AM EDT on May 25, 2015 (GMT -0400)
Princeton Place 2 | | Change Station
CLOSE
Current Station
Personal Weather Station
Location: Boynton Beach, FL
Elevation: 14 ft
Nearby Weather Stations

Elev 14 ft 26.55 °N, 80.12 °W | Updated 19 seconds ago

Mostly Cloudy
Mostly Cloudy
89.4 °F
Feels Like 99 °F
N
8.3
Wind Variable Wind from South
Gusts 8.3 mph

Today
High -- | Low -- °F
--% Chance of Precip.
Yesterday
High -- | Low -- °F
Precip. -- in
6:29 AM 8:05 PM
Waxing Crescent, 49% visible
Pressure 30.20 in
Visibility 10.0 miles
Clouds Mostly Cloudy 2100 ft
Mostly Cloudy 3100 ft
Mostly Cloudy 4600 ft
Heat Index 99 °F
Dew Point 75 °F
Humidity 62%
Rainfall in
Snow Depth Not available.
UV 6 out of 12
Pollen 5.10 out of 12
Air Quality Not available.
Flu Activity Sporadic
METAR KPBI 251453Z 10014KT 10SM BKN021 BKN031 BKN046 30/23 A3020 RMK AO2 SLP226 T03000228 51010

More Conditions Fewer Conditions

Pressure 30.20 in
Visibility 10.0 miles
Clouds Mostly Cloudy 2100 ft
Mostly Cloudy 3100 ft
Mostly Cloudy 4600 ft
Heat Index 99 °F
Dew Point 75 °F
Humidity 62%
Rainfall in
Snow Depth Not available.
UV 6 out of 12
Pollen 5.10 out of 12
Air Quality Not available.
Flu Activity Sporadic
METAR KPBI 251453Z 10014KT 10SM BKN021 BKN031 BKN046 30/23 A3020 RMK AO2 SLP226 T03000228 51010

More Conditions Fewer Conditions

10-Day Weather Forecast

Almanac

Astronomy

May. 25, 2015 Rise Set
Actual Time
Civil Twilight
Nautical Twilight
Astronomical Twilight
Moon
Length of Visible Light
Length of Day
Tomorrow will be .
, % of the Moon is Illuminated

Today's Extremes

State Highs State Lows

Community

WunderPhotos

Upload Photos

1,824,028 photos uploaded!

WunderBlogs® & News

Nearby

Air Quality

  Air Quality AQ Index Pollutant
Not available.

Snow Depth

Station Depth Elevation

Earthquake Activity

City Distance Mag. Time & Date
Minimum magnitude displayed is 2.5.

Coastal Water Temperatures

Place Temperature

Stations

Nearby Weather Stations

Station Location Temp. Windchill Dew Point Humidity Wind Precip. Elev Updated Type